Aviation Digital Data Service (ADDS)

Output produced by METARs form (0557 UTC 29 May 2017)
found at http://www.aviationweather.gov/adds/metars/
 
TAF SBAT 282200Z 2900/2912 29003KT 9999 FEW025 TN22/2906Z TX26/2912Z 
     BECMG 2902/2904 09003KT FEW020 
     PROB30 
     TEMPO 2909/2912 00000KT 0500 FG OVC002 RMK PCQ
       
TAF SBAN 282200Z 2900/2912 12008KT CAVOK TN15/2908Z TX20/2912Z RMK PDF
       
TAF SBAR 290200Z 2906/2918 13010KT 8000 SCT017 TN24/2908Z TX28/2915Z 
     TEMPO 2908/2910 5000 RA BKN015 RMK PEA
       
TAF SBBG 290300Z 2906/3006 26005KT 1500 BR OVC002 TN13/2908Z TX16/291 8Z 
     PROB40 2907/2910 0400 FG VV001 
     BECMG 2910/2912 17006KT 3000 BR BKN00 4 BKN007 
     BECMG 2912/2914 8000 BKN005 BKN010 
     BECMG 2916/2918 9999 NSW B KN008 BKN012 
     BECMG 2918/2920 BKN010 BKN015 
     BECMG 2922/2924 14004KT BKN008 RMK PER
       
TAF SBBW 282200Z 2900/2912 00000KT CAVOK TN19/2908Z TX27/2912Z RMK PDF
       
TAF SBBU 282100Z 2900/2912 12006KT 9999 BKN010 TX22/2900Z TN18/2910Z 
     PROB30 
     TEMPO 2900/2906 14006KT CAVOK RMK PDN
       
TAF SBBE 290400Z 2906/3006 09003KT CAVOK TN24/2907Z TX31/2916Z 
     BECMG 2911/2913 06008KT SCT020 
     BECMG 2916/2918 36008KT BKN025 FEW030TCU 
     PROB30 2918/ 2921 TS BKN025 FEW030CB 
     BECMG 2922/2924 06005KT CAVOK RMK PEH
       
TAF SBCF 290200Z 2906/3006 13012KT CAVOK TN14/2908Z TX25/2918Z RMK PD F
       
TAF SBBV 290400Z 2906/3006 09003KT CAVOK TN26/2907Z TX34/2918Z 
     BECMG 2911/2913 06008KT SCT030 
     BECMG 2915/2917 12008KT SCT040 FEW045TCU 
     BECMG 2922/2 924 09005KT CAVOK RMK PEH
       
TAF SBLP 282200Z 2900/2912 18005KT 8000 SCT030 TX27/2900Z TN21/2908Z RMK PEA
       
TAF SBBR 290200Z 2906/3006 00000KT CAVOK TN15/2908Z TX28/2918Z 
     FM291400 13009KT CAVOK 
     FM291700 12010KT 9999 FEW040 
     FM292300 10006KT CAVOK RMK PDF
       
TAF SBCB 290230Z 2906/3006 04005KT 7000 SCT020 TN22/2907Z TX28/2916Z 
     BECMG 2910/2912 14010KT 
     BECMG 2917/2919 22010KT 
     BECMG 2921/2923 04005KT RM K PGZ
       
TAF SBKG 282200Z 2900/2912 14005KT 8000 BKN010 TX24/2900Z TN21/2907Z 
     BECMG 2907/2908 18007KT 
     TEMPO 2908/2911 3000 BR RMK PEA
       
TAF SBKP 290220Z 2906/3006 10005KT CAVOK TN17/2908Z TX26/2918Z 
     PROB30 2909/2912 4000 BR 
     BECMG 2912/2914 07005KT FEW030 
     BECMG 2915/2917 33005KT 
     BECMG 2920/2922 12007KT CAVOK RMK PGG
       
TAF SBCG 290300Z 2906/3006 15005KT 9999 FEW035 TN20/2908Z TX29/2918Z 
     PROB30 2908/2911 BKN010 
     BECMG 2912/2914 13007KT SCT040 RMK PER
       
TAF SBCP 282040Z 2900/2912 04005KT 7000 SCT017TN20/2907Z TX24/2912Z 
     BECMG 2900/2902 00000KT 
     BECMG 2904/2906 04005KT 
     BECMG 2908/2910 02005KT RMK PGW
       
TAF SBCR 290300Z 2906/3006 25005KT 9999 SCT012 BKN018 TN17/2908Z TX26 /2918Z 
     BECMG 2911/2913 BKN025 
     BECMG 2923/3001 SCT020 RMK PER
       
TAF SBCZ 290400Z 2906/3006 00000KT CAVOK TN23/2908Z TX31/2918Z 
     BECMG 2912/2914 12005KT SCT015 
     BECMG 2916/2918 15005KT BKN030 
     BECMG 2922/2924 00000K T FEW020 RMK PEH
       
TAF SBCY 290400Z 2906/3006 18005KT 9999 BKN005 TN21/2909Z TX27/2918Z 
     PROB30 2906/2911 0500 FG OVC005 
     BECMG 2911/2913 20005KT SCT010 
     BECMG 2915/2 917 16008KT SCT020 
     BECMG 2922/2924 20005KT SCT005 RMK PEH
       
TAF SBCT 290300Z 2906/3006 29005KT 9999 OVC004 TN14/2908Z TX24/2918Z 
     PROB40 2908/2911 1500 BCFG BR OVC002 
     BECMG 2912/2914 BKN008 BKN014 
     BECMG 29 14/2916 SCT030 
     BECMG 2923/3001 11005KT BKN008 RMK PER
       
TAF SBBI 282100Z 2900/2912 32004KT 6000 BKN004 TN15/2910Z TX17/2912Z 
     PROB40 
     TEMPO 2900/2905 06004KT 0500 FG VV001 RMK PDN
       
TAF SBFN 290200Z 2906/2918 10009KT 8000 SCT017 TN26/2908Z TX29/2914Z RMK PEA
       
TAF SBFL 290300Z 2906/3006 35005KT 9999 SCT012 BKN020 TN18/2906Z TX23 /2918Z 
     BECMG 2910/2912 SCT030 
     BECMG 2916/2918 17007KT BKN040 
     BECMG 3000/300 2 BKN020 RMK PER
       
TAF SBFZ 290200Z 2906/3006 18007KT 8000 SCT020 TN25/2909Z TX30/2915Z 
     TEMPO 2906/2910 4000 RA SCT006 BKN015 
     BECMG 2910/2911 15008KT 
     BECMG 2913/2 915 09008KT 
     BECMG 2921/2922 09006KT 
     BECMG 3003/3005 18004KT RMK PEA
       
TAF SBFI 290300Z 2906/3006 19004KT 9999 OVC004 TN16/2908Z TX20/2918Z 
     PROB40 2908/2911 0500 FG VV001 
     BECMG 2912/2914 BKN010 BKN015 
     BECMG 2914/291 6 SCT012 BKN025 
     BECMG 2922/2924 BKN008 
     BECMG 3002/3004 BKN005 RMK PER
       
TAF SBGO 290200Z 2906/3006 09006KT CAVOK TN17/2908Z TX30/2918Z 
     FM291500 10009KT 9999 FEW040 
     FM292200 10007KT CAVOK RMK PDF
       
TAF SBGW 282040Z 2900/2912 07005KT 7000 SCT017TN17/2907Z TX20/2912Z 
     BECMG 2900/2902 00000KT 
     BECMG 2909/2911 05005KT 4000 BR RMK PGW
       
TAF SBIL 282200Z 2900/2912 22007KT 8000 SCT020 TX23/2900Z TN20/2907Z 
     TEMPO 2900/2903 6000 RA SCT020 BKN030 
     TEMPO 2908/2911 6000 SHRA SCT020 BKN030 RMK PEA
       
TAF SBIZ 282200Z 2900/2912 15003KT 9999 FEW020 TN24/2906Z TX29/2912Z 
     BECMG 2901/2903 00000KT CAVOK RMK PCQ
       
TAF SBIH 282200Z 2900/2912 00000KT 9999 FEW020 TN22/2906Z TX25/2912Z 
     BECMG 2903/2905 24005KT 
     BECMG 2908/2910 00000KT SCT008 RMK PCQ